PWSweather.com
Personal Weather Stations
Station Observations

LlefiĆ BadalonaES

Lat: 41.44, Lon: 2.2175

Elevation: 213.254

Station Type: oregon WMR918

http://www.estacionmeteorologicabadalonallefia.com

Latest ConditionsUpdated 8:26:59 PM GMT+01:01 Thursday, Dec 18, 2014
Currently Today's Max Today's Min Today's Average
Temperature 59.2°F15.1°C 63.1°F17.3°C 48.4°F9.1°C 55.9°F13.3°C
Dew Point 44.9°F7.2°C 46.2°F7.9°C 41.6°F5.3°C 43.6°F6.4°C
Winds 1.3 mph NW2.1 kmh NW 8.3 mph NW13.4 kmh NW - 3.2 mph 5.1 kmh
Wind Gusts 3.5 mph5.6 kmh 16.6 mph26.7 kmh - -
Humidity 59% 87% 47% 65%
Pressure 30.27 in1025.1 mb 30.27 in1025.1 mb 30.09 in1019.0 mb -
Hour Temp Dew Point Humidity Winds Wind Gusts Pressure Precip Precip Rate Daily Precip Total
08:26 PM 59.2°F15.1°C 44.9°F7.2°C 59% 1.3 mph NW2.1 kmh NW 3.5 mph5.6 kmh 30.27 in1025.1 mb 0.00 in0.0 mm 0.00 in/hr0.0 mm/hr 0.00 in0.0 mm
08:16 PM 59.2°F15.1°C 44.4°F6.9°C 58% 4.9 mph NW7.9 kmh NW 13.7 mph22.0 kmh 30.27 in1025.1 mb 0.00 in0.0 mm 0.00 in/hr0.0 mm/hr 0.00 in0.0 mm
08:06 PM 59.4°F15.2°C 44.6°F7.0°C 58% 5.3 mph NW8.5 kmh NW 9.9 mph15.9 kmh 30.27 in1025.1 mb 0.00 in0.0 mm 0.00 in/hr0.0 mm/hr 0.00 in0.0 mm
07:56 PM 59.5°F15.3°C 45.2°F7.3°C 59% 2.4 mph NW3.9 kmh NW 4.1 mph6.6 kmh 30.27 in1025.1 mb 0.00 in0.0 mm 0.00 in/hr0.0 mm/hr 0.00 in0.0 mm
07:46 PM 59.5°F15.3°C 45.2°F7.3°C 59% 6.4 mph NW10.3 kmh NW 13.7 mph22.0 kmh 30.27 in1025.1 mb 0.00 in0.0 mm 0.00 in/hr0.0 mm/hr 0.00 in0.0 mm
07:36 PM 59.5°F15.3°C 45.6°F7.6°C 60% 4.8 mph NW7.7 kmh NW 8.7 mph14.0 kmh 30.27 in1025.1 mb 0.00 in0.0 mm 0.00 in/hr0.0 mm/hr 0.00 in0.0 mm
07:26 PM 59.4°F15.2°C 45.5°F7.5°C 60% 3.1 mph NW5.0 kmh NW 5.8 mph9.3 kmh 30.24 in1024.0 mb 0.00 in0.0 mm 0.00 in/hr0.0 mm/hr 0.00 in0.0 mm
07:16 PM 59.5°F15.3°C 45.2°F7.3°C 59% 2.1 mph WNW3.4 kmh WNW 4.6 mph7.4 kmh 30.24 in1024.0 mb 0.00 in0.0 mm 0.00 in/hr0.0 mm/hr 0.00 in0.0 mm
07:06 PM 59.7°F15.4°C 45.4°F7.4°C 59% 4.4 mph NW7.1 kmh NW 9.9 mph15.9 kmh 30.24 in1024.0 mb 0.00 in0.0 mm 0.00 in/hr0.0 mm/hr 0.00 in0.0 mm
06:56 PM 59.7°F15.4°C 45.4°F7.4°C 59% 5.1 mph NW8.2 kmh NW 6.4 mph10.3 kmh 30.24 in1024.0 mb 0.00 in0.0 mm 0.00 in/hr0.0 mm/hr 0.00 in0.0 mm
06:46 PM 59.7°F15.4°C 44.9°F7.2°C 58% 4.5 mph NW7.2 kmh NW 8.1 mph13.0 kmh 30.24 in1024.0 mb 0.00 in0.0 mm 0.00 in/hr0.0 mm/hr 0.00 in0.0 mm
06:36 PM 59.7°F15.4°C 44.5°F6.9°C 57% 3.4 mph NW5.5 kmh NW 7.0 mph11.3 kmh 30.24 in1024.0 mb 0.00 in0.0 mm 0.00 in/hr0.0 mm/hr 0.00 in0.0 mm
06:26 PM 59.9°F15.5°C 44.2°F6.8°C 56% 4.9 mph NW7.9 kmh NW 9.9 mph15.9 kmh 30.24 in1024.0 mb 0.00 in0.0 mm 0.00 in/hr0.0 mm/hr 0.00 in0.0 mm
06:16 PM 60.1°F15.6°C 43.4°F6.3°C 54% Calm Calm 2.9 mph4.7 kmh 30.24 in1024.0 mb 0.00 in0.0 mm 0.00 in/hr0.0 mm/hr 0.00 in0.0 mm
06:06 PM 60.3°F15.7°C 43.1°F6.2°C 53% 4.0 mph NW6.4 kmh NW 10.5 mph16.9 kmh 30.21 in1023.0 mb 0.00 in0.0 mm 0.00 in/hr0.0 mm/hr 0.00 in0.0 mm
05:56 PM 60.6°F15.9°C 43.3°F6.3°C 53% 0.9 mph NW1.4 kmh NW 10.5 mph16.9 kmh 30.21 in1023.0 mb 0.00 in0.0 mm 0.00 in/hr0.0 mm/hr 0.00 in0.0 mm
05:46 PM 60.8°F16.0°C 42.5°F5.8°C 51% Calm Calm 4.6 mph7.4 kmh 30.21 in1023.0 mb 0.00 in0.0 mm 0.00 in/hr0.0 mm/hr 0.00 in0.0 mm
05:36 PM 61.1°F16.2°C 42.8°F6.0°C 51% 1.9 mph NW3.1 kmh NW -- 30.21 in1023.0 mb 0.00 in0.0 mm 0.00 in/hr0.0 mm/hr 0.00 in0.0 mm
05:26 PM 61.3°F16.3°C 43.0°F6.1°C 51% 1.6 mph NW2.6 kmh NW 7.6 mph12.2 kmh 30.21 in1023.0 mb 0.00 in0.0 mm 0.00 in/hr0.0 mm/hr 0.00 in0.0 mm
05:16 PM 61.7°F16.5°C 42.9°F6.1°C 50% 0.6 mph NW1.0 kmh NW 8.1 mph13.0 kmh 30.21 in1023.0 mb 0.00 in0.0 mm 0.00 in/hr0.0 mm/hr 0.00 in0.0 mm
05:06 PM 61.9°F16.6°C 43.0°F6.1°C 50% 1.4 mph NW2.3 kmh NW -- 30.21 in1023.0 mb 0.00 in0.0 mm 0.00 in/hr0.0 mm/hr 0.00 in0.0 mm
04:56 PM 62.1°F16.7°C 43.2°F6.2°C 50% 3.2 mph NW5.1 kmh NW 8.1 mph13.0 kmh 30.21 in1023.0 mb 0.00 in0.0 mm 0.00 in/hr0.0 mm/hr 0.00 in0.0 mm
04:46 PM 62.2°F16.8°C 42.8°F6.0°C 49% 4.5 mph NW7.2 kmh NW 4.6 mph7.4 kmh 30.21 in1023.0 mb 0.00 in0.0 mm 0.00 in/hr0.0 mm/hr 0.00 in0.0 mm
04:36 PM 62.2°F16.8°C 42.8°F6.0°C 49% Calm Calm 4.1 mph6.6 kmh 30.21 in1023.0 mb 0.00 in0.0 mm 0.00 in/hr0.0 mm/hr 0.00 in0.0 mm
04:26 PM 62.4°F16.9°C 43.0°F6.1°C 49% 3.1 mph NW5.0 kmh NW 7.0 mph11.3 kmh 30.21 in1023.0 mb 0.00 in0.0 mm 0.00 in/hr0.0 mm/hr 0.00 in0.0 mm
04:16 PM 62.6°F17.0°C 42.1°F5.6°C 47% 4.7 mph NW7.6 kmh NW 7.0 mph11.3 kmh 30.21 in1023.0 mb 0.00 in0.0 mm 0.00 in/hr0.0 mm/hr 0.00 in0.0 mm
04:06 PM 62.9°F17.2°C 42.3°F5.7°C 47% 5.1 mph NW8.2 kmh NW 11.3 mph18.2 kmh 30.18 in1022.0 mb 0.00 in0.0 mm 0.00 in/hr0.0 mm/hr 0.00 in0.0 mm
03:56 PM 63.1°F17.3°C 42.6°F5.9°C 47% 3.4 mph NW5.5 kmh NW 7.0 mph11.3 kmh 30.18 in1022.0 mb 0.00 in0.0 mm 0.00 in/hr0.0 mm/hr 0.00 in0.0 mm
03:46 PM 63.1°F17.3°C 42.6°F5.9°C 47% 3.4 mph NW5.5 kmh NW 7.0 mph11.3 kmh 30.18 in1022.0 mb 0.00 in0.0 mm 0.00 in/hr0.0 mm/hr 0.00 in0.0 mm
03:36 PM 63.1°F17.3°C 42.6°F5.9°C 47% 4.0 mph NW6.4 kmh NW 10.5 mph16.9 kmh 30.18 in1022.0 mb 0.00 in0.0 mm 0.00 in/hr0.0 mm/hr 0.00 in0.0 mm
03:26 PM 63.0°F17.2°C 42.4°F5.8°C 47% 2.9 mph S4.7 kmh S 4.6 mph7.4 kmh 30.18 in1022.0 mb 0.00 in0.0 mm 0.00 in/hr0.0 mm/hr 0.00 in0.0 mm
03:16 PM 62.8°F17.1°C 43.3°F6.3°C 49% 2.3 mph W3.7 kmh W 8.1 mph13.0 kmh 30.18 in1022.0 mb 0.00 in0.0 mm 0.00 in/hr0.0 mm/hr 0.00 in0.0 mm
03:06 PM 62.6°F17.0°C 42.1°F5.6°C 47% 3.6 mph NW5.8 kmh NW 3.5 mph5.6 kmh 30.18 in1022.0 mb 0.00 in0.0 mm 0.00 in/hr0.0 mm/hr 0.00 in0.0 mm
02:56 PM 62.6°F17.0°C 42.1°F5.6°C 47% 6.1 mph WNW9.8 kmh WNW 7.0 mph11.3 kmh 30.18 in1022.0 mb 0.00 in0.0 mm 0.00 in/hr0.0 mm/hr 0.00 in0.0 mm
02:46 PM 62.7°F17.1°C 42.2°F5.7°C 47% 5.5 mph NW8.9 kmh NW 13.1 mph21.1 kmh 30.18 in1022.0 mb 0.00 in0.0 mm 0.00 in/hr0.0 mm/hr 0.00 in0.0 mm
02:36 PM 62.6°F17.0°C 42.1°F5.6°C 47% 2.6 mph N4.2 kmh N 8.7 mph14.0 kmh 30.18 in1022.0 mb 0.00 in0.0 mm 0.00 in/hr0.0 mm/hr 0.00 in0.0 mm
02:26 PM 62.6°F17.0°C 42.1°F5.6°C 47% 4.1 mph NW6.6 kmh NW 10.7 mph17.2 kmh 30.18 in1022.0 mb 0.00 in0.0 mm 0.00 in/hr0.0 mm/hr 0.00 in0.0 mm
02:16 PM 62.8°F17.1°C 43.3°F6.3°C 49% 2.4 mph WNW3.9 kmh WNW 4.1 mph6.6 kmh 30.18 in1022.0 mb 0.00 in0.0 mm 0.00 in/hr0.0 mm/hr 0.00 in0.0 mm
02:06 PM 62.2°F16.8°C 42.8°F6.0°C 49% 3.0 mph NW4.8 kmh NW 4.6 mph7.4 kmh 30.18 in1022.0 mb 0.00 in0.0 mm 0.00 in/hr0.0 mm/hr 0.00 in0.0 mm
01:56 PM 62.1°F16.7°C 41.6°F5.3°C 47% 4.2 mph WSW6.8 kmh WSW 4.6 mph7.4 kmh 30.18 in1022.0 mb 0.00 in0.0 mm 0.00 in/hr0.0 mm/hr 0.00 in0.0 mm
01:46 PM 62.5°F16.9°C 42.0°F5.6°C 47% 4.3 mph WSW6.9 kmh WSW 10.7 mph17.2 kmh 30.18 in1022.0 mb 0.00 in0.0 mm 0.00 in/hr0.0 mm/hr 0.00 in0.0 mm
01:36 PM 62.6°F17.0°C 42.1°F5.6°C 47% 2.6 mph NE4.2 kmh NE 7.0 mph11.3 kmh 30.18 in1022.0 mb 0.00 in0.0 mm 0.00 in/hr0.0 mm/hr 0.00 in0.0 mm
01:26 PM 62.8°F17.1°C 42.2°F5.7°C 47% 1.9 mph WSW3.1 kmh WSW 4.6 mph7.4 kmh 30.18 in1022.0 mb 0.00 in0.0 mm 0.00 in/hr0.0 mm/hr 0.00 in0.0 mm
01:16 PM 62.9°F17.2°C 42.4°F5.8°C 47% 2.1 mph SSW3.4 kmh SSW 7.6 mph12.2 kmh 30.18 in1022.0 mb 0.00 in0.0 mm 0.00 in/hr0.0 mm/hr 0.00 in0.0 mm
01:06 PM 62.6°F17.0°C 42.1°F5.6°C 47% 2.9 mph SW4.7 kmh SW 6.4 mph10.3 kmh 30.18 in1022.0 mb 0.00 in0.0 mm 0.00 in/hr0.0 mm/hr 0.00 in0.0 mm
12:56 PM 62.2°F16.8°C 43.4°F6.3°C 50% 3.3 mph SW5.3 kmh SW 7.6 mph12.2 kmh 30.18 in1022.0 mb 0.00 in0.0 mm 0.00 in/hr0.0 mm/hr 0.00 in0.0 mm
12:46 PM 61.0°F16.1°C 42.7°F5.9°C 51% Calm Calm 2.9 mph4.7 kmh 30.18 in1022.0 mb 0.00 in0.0 mm 0.00 in/hr0.0 mm/hr 0.00 in0.0 mm
12:36 PM 60.1°F15.6°C 41.9°F5.5°C 51% 5.4 mph SW8.7 kmh SW 7.6 mph12.2 kmh 30.18 in1022.0 mb 0.00 in0.0 mm 0.00 in/hr0.0 mm/hr 0.00 in0.0 mm
12:26 PM 59.9°F15.5°C 42.2°F5.7°C 52% 6.2 mph NW10.0 kmh NW 13.7 mph22.0 kmh 30.18 in1022.0 mb 0.00 in0.0 mm 0.00 in/hr0.0 mm/hr 0.00 in0.0 mm
12:16 PM 59.9°F15.5°C 42.2°F5.7°C 52% 5.8 mph NW9.3 kmh NW 10.7 mph17.2 kmh 30.18 in1022.0 mb 0.00 in0.0 mm 0.00 in/hr0.0 mm/hr 0.00 in0.0 mm
12:06 PM 59.6°F15.3°C 42.5°F5.8°C 53% 4.0 mph NW6.4 kmh NW 10.5 mph16.9 kmh 30.18 in1022.0 mb 0.00 in0.0 mm 0.00 in/hr0.0 mm/hr 0.00 in0.0 mm
11:56 AM 58.8°F14.9°C 42.2°F5.7°C 54% 2.9 mph NW4.7 kmh NW 5.2 mph8.4 kmh 30.21 in1023.0 mb 0.00 in0.0 mm 0.00 in/hr0.0 mm/hr 0.00 in0.0 mm
11:46 AM 58.8°F14.9°C 43.1°F6.2°C 56% 3.0 mph NW4.8 kmh NW 10.5 mph16.9 kmh 30.21 in1023.0 mb 0.00 in0.0 mm 0.00 in/hr0.0 mm/hr 0.00 in0.0 mm
11:36 AM 58.3°F14.6°C 42.7°F5.9°C 56% 0.7 mph NW1.1 kmh NW 7.6 mph12.2 kmh 30.21 in1023.0 mb 0.00 in0.0 mm 0.00 in/hr0.0 mm/hr 0.00 in0.0 mm
11:26 AM 58.5°F14.7°C 43.3°F6.3°C 57% Calm Calm -- 30.21 in1023.0 mb 0.00 in0.0 mm 0.00 in/hr0.0 mm/hr 0.00 in0.0 mm
11:16 AM 58.3°F14.6°C 43.1°F6.2°C 57% 2.7 mph N4.3 kmh N 6.4 mph10.3 kmh 30.21 in1023.0 mb 0.00 in0.0 mm 0.00 in/hr0.0 mm/hr 0.00 in0.0 mm
11:06 AM 57.9°F14.4°C 42.3°F5.7°C 56% 2.9 mph SSE4.7 kmh SSE 4.6 mph7.4 kmh 30.18 in1022.0 mb 0.00 in0.0 mm 0.00 in/hr0.0 mm/hr 0.00 in0.0 mm
10:56 AM 57.7°F14.3°C 42.6°F5.9°C 57% 2.7 mph NW4.3 kmh NW 10.7 mph17.2 kmh 30.18 in1022.0 mb 0.00 in0.0 mm 0.00 in/hr0.0 mm/hr 0.00 in0.0 mm
10:46 AM 57.5°F14.2°C 42.8°F6.0°C 58% Calm Calm 4.1 mph6.6 kmh 30.18 in1022.0 mb 0.00 in0.0 mm 0.00 in/hr0.0 mm/hr 0.00 in0.0 mm
10:36 AM 57.2°F14.0°C 43.0°F6.1°C 59% 4.7 mph NW7.6 kmh NW 14.2 mph22.9 kmh 30.18 in1022.0 mb 0.00 in0.0 mm 0.00 in/hr0.0 mm/hr 0.00 in0.0 mm
10:26 AM 57.2°F14.0°C 43.4°F6.3°C 60% 0.7 mph NW1.1 kmh NW 7.6 mph12.2 kmh 30.18 in1022.0 mb 0.00 in0.0 mm 0.00 in/hr0.0 mm/hr 0.00 in0.0 mm
10:16 AM 57.0°F13.9°C 43.2°F6.2°C 60% 0.7 mph NW1.1 kmh NW 5.2 mph8.4 kmh 30.18 in1022.0 mb 0.00 in0.0 mm 0.00 in/hr0.0 mm/hr 0.00 in0.0 mm
10:06 AM 56.6°F13.7°C 43.3°F6.3°C 61% 4.6 mph NW7.4 kmh NW 7.0 mph11.3 kmh 30.18 in1022.0 mb 0.00 in0.0 mm 0.00 in/hr0.0 mm/hr 0.00 in0.0 mm
09:56 AM 56.1°F13.4°C 43.3°F6.3°C 62% 3.8 mph NW6.1 kmh NW 10.7 mph17.2 kmh 30.18 in1022.0 mb 0.00 in0.0 mm 0.00 in/hr0.0 mm/hr 0.00 in0.0 mm
09:46 AM 55.6°F13.1°C 43.2°F6.2°C 63% 6.9 mph NW11.1 kmh NW 13.7 mph22.0 kmh 30.18 in1022.0 mb 0.00 in0.0 mm 0.00 in/hr0.0 mm/hr 0.00 in0.0 mm
09:36 AM 55.2°F12.9°C 43.2°F6.2°C 64% 2.1 mph NW3.4 kmh NW 4.6 mph7.4 kmh 30.18 in1022.0 mb 0.00 in0.0 mm 0.00 in/hr0.0 mm/hr 0.00 in0.0 mm
09:16 AM 54.5°F12.5°C 43.4°F6.3°C 66% 5.1 mph NW8.2 kmh NW 8.7 mph14.0 kmh 30.18 in1022.0 mb 0.00 in0.0 mm 0.00 in/hr0.0 mm/hr 0.00 in0.0 mm
09:06 AM 54.0°F12.2°C 43.2°F6.2°C 67% 5.4 mph NW8.7 kmh NW 7.6 mph12.2 kmh 30.15 in1021.0 mb 0.00 in0.0 mm 0.00 in/hr0.0 mm/hr 0.00 in0.0 mm
08:56 AM 53.4°F11.9°C 43.1°F6.2°C 68% 5.2 mph NW8.4 kmh NW 11.3 mph18.2 kmh 30.15 in1021.0 mb 0.00 in0.0 mm 0.00 in/hr0.0 mm/hr 0.00 in0.0 mm
08:46 AM 53.1°F11.7°C 42.8°F6.0°C 68% 5.5 mph NW8.9 kmh NW 13.1 mph21.1 kmh 30.15 in1021.0 mb 0.00 in0.0 mm 0.00 in/hr0.0 mm/hr 0.00 in0.0 mm
08:36 AM 52.7°F11.5°C 42.8°F6.0°C 69% 3.3 mph NW5.3 kmh NW 7.6 mph12.2 kmh 30.15 in1021.0 mb 0.00 in0.0 mm 0.00 in/hr0.0 mm/hr 0.00 in0.0 mm
08:27 AM 52.7°F11.5°C 42.8°F6.0°C 69% 5.8 mph NW9.3 kmh NW 10.5 mph16.9 kmh 30.15 in1021.0 mb 0.00 in0.0 mm 0.00 in/hr0.0 mm/hr 0.00 in0.0 mm
08:16 AM 52.3°F11.3°C 42.8°F6.0°C 70% 4.8 mph NW7.7 kmh NW 9.9 mph15.9 kmh 30.15 in1021.0 mb 0.00 in0.0 mm 0.00 in/hr0.0 mm/hr 0.00 in0.0 mm
08:06 AM 52.2°F11.2°C 42.3°F5.7°C 69% Calm Calm -- 30.15 in1021.0 mb 0.00 in0.0 mm 0.00 in/hr0.0 mm/hr 0.00 in0.0 mm
07:56 AM 52.0°F11.1°C 42.1°F5.6°C 69% 0.7 mph NE1.1 kmh NE 4.6 mph7.4 kmh 30.15 in1021.0 mb 0.00 in0.0 mm 0.00 in/hr0.0 mm/hr 0.00 in0.0 mm
07:46 AM 52.2°F11.2°C 42.3°F5.7°C 69% 1.5 mph WSW2.4 kmh WSW 4.1 mph6.6 kmh 30.15 in1021.0 mb 0.00 in0.0 mm 0.00 in/hr0.0 mm/hr 0.00 in0.0 mm
07:36 AM 52.2°F11.2°C 41.9°F5.5°C 68% 3.5 mph NW5.6 kmh NW 8.1 mph13.0 kmh 30.15 in1021.0 mb 0.00 in0.0 mm 0.00 in/hr0.0 mm/hr 0.00 in0.0 mm
07:26 AM 52.3°F11.3°C 42.5°F5.8°C 69% 4.1 mph NW6.6 kmh NW 4.6 mph7.4 kmh 30.15 in1021.0 mb 0.00 in0.0 mm 0.00 in/hr0.0 mm/hr 0.00 in0.0 mm
07:16 AM 52.3°F11.3°C 42.8°F6.0°C 70% 5.8 mph NW9.3 kmh NW 9.9 mph15.9 kmh 30.15 in1021.0 mb 0.00 in0.0 mm 0.00 in/hr0.0 mm/hr 0.00 in0.0 mm
07:06 AM 52.0°F11.1°C 42.5°F5.8°C 70% 3.2 mph NW5.1 kmh NW 8.1 mph13.0 kmh 30.12 in1020.0 mb 0.00 in0.0 mm 0.00 in/hr0.0 mm/hr 0.00 in0.0 mm
06:56 AM 52.0°F11.1°C 42.5°F5.8°C 70% 5.7 mph NW9.2 kmh NW 7.6 mph12.2 kmh 30.12 in1020.0 mb 0.00 in0.0 mm 0.00 in/hr0.0 mm/hr 0.00 in0.0 mm
06:46 AM 52.0°F11.1°C 42.5°F5.8°C 70% 3.6 mph NNW5.8 kmh NNW 9.9 mph15.9 kmh 30.12 in1020.0 mb 0.00 in0.0 mm 0.00 in/hr0.0 mm/hr 0.00 in0.0 mm
06:36 AM 52.0°F11.1°C 42.9°F6.1°C 71% 8.3 mph NW13.4 kmh NW 13.7 mph22.0 kmh 30.12 in1020.0 mb 0.00 in0.0 mm 0.00 in/hr0.0 mm/hr 0.00 in0.0 mm
06:26 AM 52.0°F11.1°C 43.2°F6.2°C 72% 0.9 mph NW1.4 kmh NW 5.2 mph8.4 kmh 30.12 in1020.0 mb 0.00 in0.0 mm 0.00 in/hr0.0 mm/hr 0.00 in0.0 mm
06:16 AM 51.8°F11.0°C 43.1°F6.2°C 72% Calm Calm 4.1 mph6.6 kmh 30.12 in1020.0 mb 0.00 in0.0 mm 0.00 in/hr0.0 mm/hr 0.00 in0.0 mm
06:06 AM 52.1°F11.2°C 44.0°F6.7°C 74% 2.2 mph NW3.5 kmh NW 10.5 mph16.9 kmh 30.12 in1020.0 mb 0.00 in0.0 mm 0.00 in/hr0.0 mm/hr 0.00 in0.0 mm
05:56 AM 52.0°F11.1°C 45.0°F7.2°C 77% 6.3 mph NW10.1 kmh NW 16.6 mph26.7 kmh 30.12 in1020.0 mb 0.00 in0.0 mm 0.00 in/hr0.0 mm/hr 0.00 in0.0 mm
05:46 AM 51.6°F10.9°C 45.6°F7.6°C 80% Calm Calm 2.9 mph4.7 kmh 30.12 in1020.0 mb 0.00 in0.0 mm 0.00 in/hr0.0 mm/hr 0.00 in0.0 mm
05:36 AM 51.1°F10.6°C 46.1°F7.8°C 83% 3.8 mph NNW6.1 kmh NNW 9.9 mph15.9 kmh 30.12 in1020.0 mb 0.00 in0.0 mm 0.00 in/hr0.0 mm/hr 0.00 in0.0 mm
05:26 AM 50.4°F10.2°C 45.7°F7.6°C 84% 1.5 mph NW2.4 kmh NW -- 30.12 in1020.0 mb 0.00 in0.0 mm 0.00 in/hr0.0 mm/hr 0.00 in0.0 mm
05:16 AM 50.0°F10.0°C 45.7°F7.6°C 85% Calm Calm -- 30.12 in1020.0 mb 0.00 in0.0 mm 0.00 in/hr0.0 mm/hr 0.00 in0.0 mm
05:06 AM 49.5°F9.7°C 45.5°F7.5°C 86% Calm Calm -- 30.12 in1020.0 mb 0.00 in0.0 mm 0.00 in/hr0.0 mm/hr 0.00 in0.0 mm
04:56 AM 48.7°F9.3°C 44.4°F6.9°C 85% 1.4 mph NW2.3 kmh NW 7.6 mph12.2 kmh 30.12 in1020.0 mb 0.00 in0.0 mm 0.00 in/hr0.0 mm/hr 0.00 in0.0 mm
04:46 AM 49.1°F9.5°C 45.1°F7.3°C 86% 5.2 mph NW8.4 kmh NW 10.7 mph17.2 kmh 30.12 in1020.0 mb 0.00 in0.0 mm 0.00 in/hr0.0 mm/hr 0.00 in0.0 mm
04:36 AM 48.6°F9.2°C 44.3°F6.8°C 85% 1.0 mph NW1.6 kmh NW 7.0 mph11.3 kmh 30.12 in1020.0 mb 0.00 in0.0 mm 0.00 in/hr0.0 mm/hr 0.00 in0.0 mm
04:26 AM 48.6°F9.2°C 44.3°F6.8°C 85% Calm Calm -- 30.12 in1020.0 mb 0.00 in0.0 mm 0.00 in/hr0.0 mm/hr 0.00 in0.0 mm
04:16 AM 48.6°F9.2°C 43.9°F6.6°C 84% 1.8 mph SW2.9 kmh SW -- 30.12 in1020.0 mb 0.00 in0.0 mm 0.00 in/hr0.0 mm/hr 0.00 in0.0 mm
04:06 AM 48.4°F9.1°C 43.8°F6.6°C 84% 4.0 mph NW6.4 kmh NW 6.4 mph10.3 kmh 30.12 in1020.0 mb 0.00 in0.0 mm 0.00 in/hr0.0 mm/hr 0.00 in0.0 mm
03:56 AM 48.4°F9.1°C 43.5°F6.4°C 83% 4.2 mph NW6.8 kmh NW 8.1 mph13.0 kmh 30.12 in1020.0 mb 0.00 in0.0 mm 0.00 in/hr0.0 mm/hr 0.00 in0.0 mm
03:46 AM 49.0°F9.4°C 44.1°F6.7°C 83% 5.6 mph NW9.0 kmh NW 9.9 mph15.9 kmh 30.12 in1020.0 mb 0.00 in0.0 mm 0.00 in/hr0.0 mm/hr 0.00 in0.0 mm
03:36 AM 49.6°F9.8°C 44.7°F7.1°C 83% 5.2 mph NW8.4 kmh NW 7.0 mph11.3 kmh 30.12 in1020.0 mb 0.00 in0.0 mm 0.00 in/hr0.0 mm/hr 0.00 in0.0 mm
03:26 AM 49.8°F9.9°C 44.9°F7.2°C 83% 2.9 mph NW4.7 kmh NW 7.6 mph12.2 kmh 30.12 in1020.0 mb 0.00 in0.0 mm 0.00 in/hr0.0 mm/hr 0.00 in0.0 mm
03:16 AM 50.0°F10.0°C 45.0°F7.2°C 83% 3.3 mph NNW5.3 kmh NNW 8.1 mph13.0 kmh 30.12 in1020.0 mb 0.00 in0.0 mm 0.00 in/hr0.0 mm/hr 0.00 in0.0 mm
03:06 AM 50.2°F10.1°C 45.5°F7.5°C 84% 3.8 mph NW6.1 kmh NW 9.9 mph15.9 kmh 30.12 in1020.0 mb 0.00 in0.0 mm 0.00 in/hr0.0 mm/hr 0.00 in0.0 mm
02:56 AM 50.2°F10.1°C 45.8°F7.7°C 85% 2.4 mph NW3.9 kmh NW 7.0 mph11.3 kmh 30.12 in1020.0 mb 0.00 in0.0 mm 0.00 in/hr0.0 mm/hr 0.00 in0.0 mm
02:46 AM 50.2°F10.1°C 46.2°F7.9°C 86% 0.6 mph NW1.0 kmh NW 6.4 mph10.3 kmh 30.12 in1020.0 mb 0.00 in0.0 mm 0.00 in/hr0.0 mm/hr 0.00 in0.0 mm
02:36 AM 50.0°F10.0°C 46.0°F7.8°C 86% Calm Calm 3.5 mph5.6 kmh 30.12 in1020.0 mb 0.00 in0.0 mm 0.00 in/hr0.0 mm/hr 0.00 in0.0 mm
02:26 AM 49.1°F9.5°C 45.1°F7.3°C 86% 2.2 mph NW3.5 kmh NW 5.2 mph8.4 kmh 30.12 in1020.0 mb 0.00 in0.0 mm 0.00 in/hr0.0 mm/hr 0.00 in0.0 mm
02:16 AM 49.3°F9.6°C 45.3°F7.4°C 86% 5.5 mph NW8.9 kmh NW 7.0 mph11.3 kmh 30.12 in1020.0 mb 0.00 in0.0 mm 0.00 in/hr0.0 mm/hr 0.00 in0.0 mm
02:06 AM 49.1°F9.5°C 45.1°F7.3°C 86% 4.4 mph NW7.1 kmh NW 7.0 mph11.3 kmh 30.12 in1020.0 mb 0.00 in0.0 mm 0.00 in/hr0.0 mm/hr 0.00 in0.0 mm
01:56 AM 48.9°F9.4°C 44.9°F7.2°C 86% Calm Calm 3.5 mph5.6 kmh 30.09 in1019.0 mb 0.00 in0.0 mm 0.00 in/hr0.0 mm/hr 0.00 in0.0 mm
01:46 AM 49.3°F9.6°C 45.3°F7.4°C 86% 0.7 mph NW1.1 kmh NW 4.1 mph6.6 kmh 30.09 in1019.0 mb 0.00 in0.0 mm 0.00 in/hr0.0 mm/hr 0.00 in0.0 mm
01:36 AM 49.3°F9.6°C 45.6°F7.6°C 87% Calm Calm -- 30.09 in1019.0 mb 0.00 in0.0 mm 0.00 in/hr0.0 mm/hr 0.00 in0.0 mm
01:26 AM 49.1°F9.5°C 45.4°F7.4°C 87% 3.9 mph NW6.3 kmh NW 7.6 mph12.2 kmh 30.12 in1020.0 mb 0.00 in0.0 mm 0.00 in/hr0.0 mm/hr 0.00 in0.0 mm
01:16 AM 48.7°F9.3°C 45.0°F7.2°C 87% 3.9 mph NW6.3 kmh NW 8.1 mph13.0 kmh 30.12 in1020.0 mb 0.00 in0.0 mm 0.00 in/hr0.0 mm/hr 0.00 in0.0 mm
01:06 AM 48.6°F9.2°C 44.6°F7.0°C 86% 5.3 mph NW8.5 kmh NW 8.7 mph14.0 kmh 30.12 in1020.0 mb 0.00 in0.0 mm 0.00 in/hr0.0 mm/hr 0.00 in0.0 mm
12:56 AM 48.6°F9.2°C 44.6°F7.0°C 86% Calm Calm 5.2 mph8.4 kmh 30.12 in1020.0 mb 0.00 in0.0 mm 0.00 in/hr0.0 mm/hr 0.00 in0.0 mm
12:46 AM 48.7°F9.3°C 44.7°F7.1°C 86% 4.9 mph NW7.9 kmh NW 10.5 mph16.9 kmh 30.12 in1020.0 mb 0.00 in0.0 mm 0.00 in/hr0.0 mm/hr 0.00 in0.0 mm
12:36 AM 48.6°F9.2°C 44.6°F7.0°C 86% 4.5 mph NW7.2 kmh NW 9.3 mph15.0 kmh 30.12 in1020.0 mb 0.00 in0.0 mm 0.00 in/hr0.0 mm/hr 0.00 in0.0 mm
12:26 AM 48.5°F9.2°C 44.2°F6.8°C 85% 6.2 mph NW10.0 kmh NW 14.2 mph22.9 kmh 30.12 in1020.0 mb 0.00 in0.0 mm 0.00 in/hr0.0 mm/hr 0.00 in0.0 mm
12:16 AM 48.7°F9.3°C 44.4°F6.9°C 85% 6.4 mph NW10.3 kmh NW 9.9 mph15.9 kmh 30.12 in1020.0 mb 0.00 in0.0 mm 0.00 in/hr0.0 mm/hr 0.00 in0.0 mm
12:06 AM 48.8°F9.3°C 43.8°F6.6°C 83% 4.0 mph NW6.4 kmh NW 10.7 mph17.2 kmh 30.12 in1020.0 mb 0.00 in0.0 mm 0.00 in/hr0.0 mm/hr 0.00 in0.0 mm